createdAt,value
2018-08-11T00:00:57.191Z,11.60
2018-08-11T00:03:25.783Z,10.80
2018-08-11T00:05:54.497Z,14.60
2018-08-11T00:08:24.217Z,12.60
2018-08-11T00:10:53.093Z,11.30
2018-08-11T00:13:21.770Z,11.93
2018-08-11T00:15:50.472Z,12.10
2018-08-11T00:18:19.404Z,13.23
2018-08-11T00:20:48.193Z,16.93
2018-08-11T00:23:16.869Z,13.37
2018-08-11T00:25:45.687Z,12.60
2018-08-11T00:28:14.397Z,13.80
2018-08-11T00:30:43.048Z,12.57
2018-08-11T00:33:11.769Z,11.00
2018-08-11T00:35:40.575Z,11.83
2018-08-11T00:38:09.296Z,13.13
2018-08-11T00:40:38.125Z,12.43
2018-08-11T00:43:06.877Z,11.67
2018-08-11T00:45:35.612Z,11.90
2018-08-11T00:48:04.352Z,10.37
2018-08-11T00:50:35.396Z,9.40
2018-08-11T00:53:04.805Z,10.20
2018-08-11T00:55:33.513Z,10.27
2018-08-11T00:58:02.224Z,11.07
2018-08-11T01:00:30.897Z,10.90
2018-08-11T01:02:59.632Z,10.70
2018-08-11T01:05:28.312Z,10.00
2018-08-11T01:07:57.072Z,10.47
2018-08-11T01:10:25.824Z,10.30
2018-08-11T01:12:54.476Z,11.60
2018-08-11T01:15:23.512Z,12.70
2018-08-11T01:17:52.591Z,11.43
2018-08-11T01:20:21.288Z,11.40
2018-08-11T01:22:50.552Z,10.53
2018-08-11T01:25:19.326Z,12.40
2018-08-11T01:27:50.890Z,9.50
2018-08-11T01:30:21.632Z,12.20
2018-08-11T01:32:50.367Z,9.20
2018-08-11T01:35:19.138Z,12.00
2018-08-11T01:37:47.864Z,9.13
2018-08-11T01:40:17.131Z,12.13
2018-08-11T01:42:47.066Z,11.40
2018-08-11T01:47:52.736Z,9.23
2018-08-11T01:50:21.464Z,11.23
2018-08-11T01:52:50.153Z,8.80
2018-08-11T01:55:19.452Z,11.13
2018-08-11T01:57:48.242Z,8.60
2018-08-11T02:00:17.445Z,7.77
2018-08-11T02:02:46.229Z,9.27
2018-08-11T02:05:15.021Z,8.27
2018-08-11T02:07:44.519Z,7.70
2018-08-11T02:10:16.519Z,7.10
2018-08-11T02:12:45.792Z,8.50
2018-08-11T02:15:15.355Z,7.23
2018-08-11T02:17:44.162Z,7.87
2018-08-11T02:20:15.429Z,8.33
2018-08-11T02:22:45.224Z,8.97
2018-08-11T02:25:13.914Z,7.50
2018-08-11T02:27:42.586Z,9.50
2018-08-11T02:30:14.177Z,8.40
2018-08-11T02:32:42.901Z,7.53
2018-08-11T02:35:12.491Z,7.77
2018-08-11T02:37:41.577Z,7.03
2018-08-11T02:40:11.864Z,7.60
2018-08-11T02:42:40.594Z,7.90
2018-08-11T02:45:10.892Z,7.77
2018-08-11T02:47:39.668Z,7.93
2018-08-11T02:50:09.674Z,10.67
2018-08-11T02:52:38.780Z,10.67
2018-08-11T02:55:07.500Z,6.37
2018-08-11T02:57:36.220Z,7.10
2018-08-11T03:00:06.466Z,7.87
2018-08-11T03:02:35.172Z,7.50
2018-08-11T03:05:04.963Z,6.73
2018-08-11T03:07:33.916Z,6.80
2018-08-11T03:10:02.606Z,5.90
2018-08-11T03:12:31.312Z,5.63
2018-08-11T03:15:00.053Z,5.23
2018-08-11T03:17:28.757Z,6.50
2018-08-11T03:19:57.377Z,6.50
2018-08-11T03:22:26.130Z,6.00
2018-08-11T03:24:54.791Z,6.23
2018-08-11T03:27:23.496Z,6.00
2018-08-11T03:29:52.187Z,7.33
2018-08-11T03:32:20.860Z,5.73
2018-08-11T03:34:49.483Z,6.23
2018-08-11T03:37:18.180Z,4.57
2018-08-11T03:39:46.809Z,6.23
2018-08-11T03:42:15.504Z,8.93
2018-08-11T03:44:44.166Z,4.87
2018-08-11T03:47:13.794Z,5.20
2018-08-11T03:49:42.554Z,4.37
2018-08-11T03:52:11.181Z,5.80
2018-08-11T03:54:39.873Z,5.27
2018-08-11T03:57:08.516Z,4.97
2018-08-11T03:59:37.322Z,5.63
2018-08-11T04:02:06.160Z,4.30
2018-08-11T04:04:34.810Z,4.60
2018-08-11T04:07:03.626Z,4.90
2018-08-11T04:09:32.356Z,5.30
2018-08-11T04:12:01.197Z,4.97
2018-08-11T04:14:29.860Z,6.43
2018-08-11T04:16:58.558Z,6.57
2018-08-11T04:19:27.205Z,5.90
2018-08-11T04:21:55.869Z,4.93
2018-08-11T04:24:24.538Z,5.63
2018-08-11T04:26:53.140Z,7.30
2018-08-11T04:29:21.789Z,6.10
2018-08-11T04:31:50.517Z,8.00
2018-08-11T04:34:19.202Z,6.13
2018-08-11T04:36:48.981Z,6.90
2018-08-11T04:39:17.705Z,5.50
2018-08-11T04:41:46.356Z,5.77
2018-08-11T04:44:15.073Z,5.70
2018-08-11T04:46:43.745Z,8.43
2018-08-11T04:49:12.432Z,7.00
2018-08-11T04:51:41.100Z,5.13
2018-08-11T04:54:09.888Z,5.87
2018-08-11T04:56:38.568Z,7.07
2018-08-11T04:59:07.242Z,8.90
2018-08-11T05:01:35.962Z,6.73
2018-08-11T05:04:04.744Z,9.43
2018-08-11T05:06:33.388Z,9.03
2018-08-11T05:09:02.068Z,13.73
2018-08-11T05:11:30.743Z,6.37
2018-08-11T05:13:59.359Z,9.10
2018-08-11T05:16:28.056Z,4.50
2018-08-11T05:18:56.683Z,5.10
2018-08-11T05:21:25.324Z,4.90
2018-08-11T05:23:53.941Z,5.93
2018-08-11T05:26:22.654Z,6.53
2018-08-11T05:28:51.635Z,6.10
2018-08-11T05:31:20.362Z,6.47
2018-08-11T05:33:49.033Z,4.30
2018-08-11T05:36:17.683Z,4.90
2018-08-11T05:38:46.443Z,5.60
2018-08-11T05:41:15.207Z,3.43
2018-08-11T05:43:44.835Z,8.17
2018-08-11T05:46:13.552Z,4.60
2018-08-11T05:48:42.275Z,6.23
2018-08-11T05:51:11.133Z,5.97
2018-08-11T05:53:39.809Z,4.83
2018-08-11T05:56:08.452Z,3.80
2018-08-11T05:58:37.204Z,3.97
2018-08-11T06:01:06.129Z,5.27
2018-08-11T06:03:35.162Z,4.07
2018-08-11T06:06:03.979Z,3.63
2018-08-11T06:08:32.618Z,4.23
2018-08-11T06:11:01.308Z,6.43
2018-08-11T06:13:29.941Z,5.60
2018-08-11T06:15:58.729Z,5.30
2018-08-11T06:18:27.966Z,7.00
2018-08-11T06:20:56.673Z,4.10
2018-08-11T06:23:25.368Z,4.70
2018-08-11T06:25:54.003Z,4.90
2018-08-11T06:28:22.763Z,3.30
2018-08-11T06:30:51.442Z,4.10
2018-08-11T06:33:20.167Z,4.17
2018-08-11T06:35:48.800Z,3.43
2018-08-11T06:38:17.624Z,4.90
2018-08-11T06:40:46.405Z,7.33
2018-08-11T06:43:15.003Z,5.53
2018-08-11T06:45:43.754Z,5.80
2018-08-11T06:48:12.544Z,3.53
2018-08-11T06:50:41.308Z,3.97
2018-08-11T06:53:10.093Z,4.53
2018-08-11T06:55:39.249Z,5.10
2018-08-11T06:58:07.840Z,6.43
2018-08-11T07:00:36.496Z,7.60
2018-08-11T07:03:05.233Z,5.50
2018-08-11T07:05:33.934Z,8.70
2018-08-11T07:08:02.592Z,3.57
2018-08-11T07:10:31.287Z,7.67
2018-08-11T07:12:59.996Z,4.40
2018-08-11T07:15:28.645Z,4.90
2018-08-11T07:17:57.332Z,4.83
2018-08-11T07:20:26.069Z,4.53
2018-08-11T07:22:54.803Z,6.63
2018-08-11T07:25:23.559Z,4.40
2018-08-11T07:27:52.213Z,3.80
2018-08-11T07:30:22.193Z,5.13
2018-08-11T07:32:50.831Z,7.10
2018-08-11T07:35:19.551Z,5.17
2018-08-11T07:37:48.261Z,5.00
2018-08-11T07:40:17.121Z,5.33
2018-08-11T07:42:45.888Z,5.53
2018-08-11T07:45:15.589Z,7.70
2018-08-11T07:47:44.252Z,4.77
2018-08-11T07:50:13.045Z,4.73
2018-08-11T07:52:41.766Z,5.30
2018-08-11T07:55:10.469Z,5.00
2018-08-11T07:57:39.095Z,7.37
2018-08-11T08:00:09.844Z,4.50
2018-08-11T08:02:38.917Z,6.73
2018-08-11T08:05:07.608Z,6.33
2018-08-11T08:07:36.336Z,6.17
2018-08-11T08:10:05.826Z,7.30
2018-08-11T08:12:34.504Z,7.97
2018-08-11T08:15:03.218Z,6.97
2018-08-11T08:17:31.880Z,8.67
2018-08-11T08:20:00.545Z,8.60
2018-08-11T08:22:29.226Z,5.67
2018-08-11T08:24:57.963Z,6.20
2018-08-11T08:27:26.643Z,6.70
2018-08-11T08:29:55.408Z,6.17
2018-08-11T08:32:24.116Z,4.07
2018-08-11T08:34:52.811Z,5.00
2018-08-11T08:37:21.472Z,4.27
2018-08-11T08:39:50.165Z,5.03
2018-08-11T08:42:18.816Z,3.60
2018-08-11T08:44:47.530Z,4.87
2018-08-11T08:47:16.233Z,4.83
2018-08-11T08:49:44.912Z,3.27
2018-08-11T08:52:13.599Z,4.03
2018-08-11T08:54:42.297Z,4.83
2018-08-11T08:57:11.002Z,5.07
2018-08-11T08:59:39.674Z,4.03
2018-08-11T09:02:08.373Z,5.37
2018-08-11T09:04:37.069Z,3.87
2018-08-11T09:07:05.931Z,8.40
2018-08-11T09:09:34.697Z,6.93
2018-08-11T09:12:03.624Z,3.70
2018-08-11T09:14:32.248Z,4.30
2018-08-11T09:17:01.139Z,6.13
2018-08-11T09:19:29.842Z,7.50
2018-08-11T09:21:58.571Z,5.40
2018-08-11T09:24:27.328Z,6.60
2018-08-11T09:26:56.037Z,4.70
2018-08-11T09:29:24.754Z,5.93
2018-08-11T09:31:53.449Z,6.47
2018-08-11T09:34:22.205Z,7.00
2018-08-11T09:36:50.896Z,5.90
2018-08-11T09:39:19.636Z,6.03
2018-08-11T09:41:48.290Z,5.90
2018-08-11T09:44:16.985Z,6.80
2018-08-11T09:46:45.768Z,6.30
2018-08-11T09:49:14.478Z,6.43
2018-08-11T09:51:43.098Z,7.03
2018-08-11T09:54:11.879Z,5.33
2018-08-11T09:56:40.609Z,5.00
2018-08-11T09:59:09.312Z,3.17
2018-08-11T10:01:44.221Z,4.30
2018-08-11T10:04:13.269Z,6.40
2018-08-11T10:06:42.049Z,2.90
2018-08-11T10:09:12.212Z,2.87
2018-08-11T10:11:41.002Z,4.00
2018-08-11T10:14:09.710Z,4.97
2018-08-11T10:16:38.440Z,3.33
2018-08-11T10:19:07.369Z,6.23
2018-08-11T10:21:36.078Z,5.63
2018-08-11T10:24:04.839Z,3.23
2018-08-11T10:26:33.476Z,5.13
2018-08-11T10:29:03.177Z,4.23
2018-08-11T10:31:31.816Z,5.70
2018-08-11T10:34:04.474Z,2.13
2018-08-11T10:36:33.189Z,2.73
2018-08-11T10:39:02.162Z,4.67
2018-08-11T10:41:30.828Z,3.57
2018-08-11T10:43:59.632Z,5.60
2018-08-11T10:46:28.492Z,2.50
2018-08-11T10:48:57.168Z,2.30
2018-08-11T10:51:25.835Z,6.33
2018-08-11T10:53:54.602Z,3.00
2018-08-11T10:56:23.342Z,3.30
2018-08-11T10:58:52.032Z,5.20
2018-08-11T11:01:20.908Z,5.60
2018-08-11T11:03:49.580Z,9.80
2018-08-11T11:06:21.284Z,2.90
2018-08-11T11:08:49.917Z,5.93
2018-08-11T11:11:18.584Z,6.63
2018-08-11T11:13:47.359Z,4.40
2018-08-11T11:16:16.069Z,3.70
2018-08-11T11:18:44.756Z,4.00
2018-08-11T11:21:13.667Z,4.37
2018-08-11T11:23:42.380Z,4.83
2018-08-11T11:26:11.076Z,4.70
2018-08-11T11:28:39.728Z,6.47
2018-08-11T11:31:08.460Z,3.57
2018-08-11T11:33:37.144Z,3.80
2018-08-11T11:36:05.847Z,3.17
2018-08-11T11:38:34.545Z,5.20
2018-08-11T11:41:03.380Z,3.43
2018-08-11T11:43:32.068Z,6.37
2018-08-11T11:46:00.806Z,5.37
2018-08-11T11:48:29.621Z,4.37
2018-08-11T11:50:58.284Z,4.77
2018-08-11T11:53:27.035Z,4.50
2018-08-11T11:55:55.717Z,3.90
2018-08-11T11:58:24.437Z,3.83
2018-08-11T12:00:53.212Z,5.80
2018-08-11T12:03:21.941Z,4.90
2018-08-11T12:05:50.701Z,4.17
2018-08-11T12:08:19.442Z,5.80
2018-08-11T12:10:48.164Z,3.10
2018-08-11T12:13:16.873Z,5.90
2018-08-11T12:15:45.798Z,14.00
2018-08-11T12:18:14.521Z,5.67
2018-08-11T12:20:43.179Z,6.70
2018-08-11T12:23:11.894Z,5.53
2018-08-11T12:25:40.618Z,3.33
2018-08-11T12:28:09.435Z,4.87
2018-08-11T12:30:38.213Z,4.70
2018-08-11T12:33:07.006Z,6.33
2018-08-11T12:35:35.764Z,5.50
2018-08-11T12:38:04.585Z,5.30
2018-08-11T12:40:33.207Z,3.33
2018-08-11T12:43:02.910Z,5.90
2018-08-11T12:45:31.753Z,3.40
2018-08-11T12:48:00.407Z,5.77
2018-08-11T12:50:29.201Z,3.40
2018-08-11T12:52:57.955Z,5.63
2018-08-11T12:55:26.704Z,5.50
2018-08-11T12:57:55.469Z,5.27
2018-08-11T13:00:24.287Z,4.20
2018-08-11T13:02:53.382Z,3.37
2018-08-11T13:05:22.172Z,3.30
2018-08-11T13:07:50.965Z,3.00
2018-08-11T13:10:23.684Z,3.57
2018-08-11T13:12:52.529Z,3.93
2018-08-11T13:15:21.282Z,3.20
2018-08-11T13:17:50.085Z,2.93
2018-08-11T13:20:18.932Z,3.07
2018-08-11T13:22:47.799Z,4.87
2018-08-11T13:25:16.555Z,5.30
2018-08-11T13:27:45.305Z,3.87
2018-08-11T13:30:14.067Z,3.70
2018-08-11T13:32:42.997Z,2.93
2018-08-11T13:35:11.759Z,6.47
2018-08-11T13:37:40.561Z,3.73
2018-08-11T13:40:09.838Z,4.03
2018-08-11T13:42:38.701Z,6.00
2018-08-11T13:45:07.492Z,6.20
2018-08-11T13:47:36.297Z,4.57
2018-08-11T13:50:06.560Z,5.13
2018-08-11T13:52:35.414Z,5.60
2018-08-11T13:55:04.521Z,3.40
2018-08-11T13:57:33.421Z,3.73
2018-08-11T14:00:02.223Z,4.47
2018-08-11T14:02:31.113Z,2.83
2018-08-11T14:04:59.869Z,3.53
2018-08-11T14:07:28.664Z,3.13
2018-08-11T14:09:57.552Z,6.83
2018-08-11T14:12:26.273Z,2.97
2018-08-11T14:14:55.010Z,2.30
2018-08-11T14:17:23.839Z,3.10
2018-08-11T14:19:52.508Z,3.73
2018-08-11T14:22:21.230Z,2.87
2018-08-11T14:24:50.038Z,3.60
2018-08-11T14:27:19.020Z,3.67
2018-08-11T14:29:47.887Z,3.97
2018-08-11T14:32:16.703Z,4.53
2018-08-11T14:34:45.446Z,3.10
2018-08-11T14:37:14.456Z,3.27
2018-08-11T14:39:43.651Z,4.43
2018-08-11T14:42:12.416Z,3.00
2018-08-11T14:44:41.197Z,2.50
2018-08-11T14:47:09.979Z,2.73
2018-08-11T14:49:38.901Z,3.20
2018-08-11T14:52:07.676Z,4.47
2018-08-11T14:54:36.620Z,7.03
2018-08-11T14:57:05.596Z,4.43
2018-08-11T14:59:34.465Z,3.10
2018-08-11T15:02:03.326Z,4.57
2018-08-11T15:04:32.056Z,2.73
2018-08-11T15:07:00.820Z,3.87
2018-08-11T15:09:29.735Z,6.10
2018-08-11T15:11:58.442Z,5.80
2018-08-11T15:14:27.332Z,4.23
2018-08-11T15:16:56.026Z,8.13
2018-08-11T15:19:24.773Z,2.30
2018-08-11T15:21:53.584Z,5.70
2018-08-11T15:24:22.341Z,4.50
2018-08-11T15:26:51.100Z,2.63
2018-08-11T15:29:19.884Z,4.83
2018-08-11T15:31:48.744Z,6.20
2018-08-11T15:34:17.587Z,5.30
2018-08-11T15:36:46.308Z,3.20
2018-08-11T15:39:16.064Z,3.63
2018-08-11T15:41:44.804Z,3.87
2018-08-11T15:44:13.608Z,2.63
2018-08-11T15:46:42.340Z,3.67
2018-08-11T15:49:11.104Z,6.00
2018-08-11T15:51:39.876Z,2.50
2018-08-11T15:54:08.670Z,4.47
2018-08-11T15:56:37.337Z,2.80
2018-08-11T15:59:07.579Z,4.03
2018-08-11T16:01:36.500Z,5.70
2018-08-11T16:04:05.265Z,3.20
2018-08-11T16:06:34.010Z,3.43
2018-08-11T16:09:02.986Z,3.97
2018-08-11T16:11:31.911Z,3.30
2018-08-11T16:14:00.798Z,4.63
2018-08-11T16:16:29.482Z,4.80
2018-08-11T16:18:58.341Z,2.93
2018-08-11T16:21:27.210Z,2.87
2018-08-11T16:23:55.937Z,2.70
2018-08-11T16:26:24.656Z,4.60
2018-08-11T16:28:53.311Z,3.17
2018-08-11T16:31:22.212Z,3.03
2018-08-11T16:33:52.272Z,6.90
2018-08-11T16:36:21.118Z,4.50
2018-08-11T16:38:50.090Z,2.87
2018-08-11T16:41:19.098Z,3.00
2018-08-11T16:43:47.808Z,4.03
2018-08-11T16:46:16.593Z,6.07
2018-08-11T16:48:46.550Z,4.37
2018-08-11T16:51:15.402Z,3.60
2018-08-11T16:53:44.122Z,3.60
2018-08-11T16:56:15.468Z,2.97
2018-08-11T16:58:44.192Z,3.07
2018-08-11T17:01:12.912Z,3.77
2018-08-11T17:03:41.849Z,4.53
2018-08-11T17:06:10.607Z,3.17
2018-08-11T17:08:39.521Z,4.83
2018-08-11T17:11:08.463Z,3.80
2018-08-11T17:13:37.242Z,3.10
2018-08-11T17:16:06.363Z,5.47
2018-08-11T17:18:35.232Z,3.93
2018-08-11T17:21:04.129Z,3.00
2018-08-11T17:23:34.958Z,2.60
2018-08-11T17:26:03.722Z,4.67
2018-08-11T17:28:32.524Z,4.03
2018-08-11T17:31:01.262Z,6.80
2018-08-11T17:33:30.081Z,4.70
2018-08-11T17:35:58.932Z,3.40
2018-08-11T17:38:27.844Z,3.23
2018-08-11T17:40:56.612Z,3.00
2018-08-11T17:43:25.638Z,4.47
2018-08-11T17:45:54.480Z,3.43
2018-08-11T17:48:23.679Z,4.17
2018-08-11T17:50:52.379Z,5.33
2018-08-11T17:53:21.226Z,3.30
2018-08-11T17:55:50.040Z,3.33
2018-08-11T17:58:18.952Z,3.43
2018-08-11T18:00:47.802Z,3.80
2018-08-11T18:03:16.687Z,3.47
2018-08-11T18:05:45.605Z,4.23
2018-08-11T18:08:14.533Z,6.77
2018-08-11T18:10:43.505Z,4.07
2018-08-11T18:13:12.316Z,6.13
2018-08-11T18:15:41.208Z,5.03
2018-08-11T18:18:09.957Z,4.77
2018-08-11T18:20:38.740Z,6.20
2018-08-11T18:23:08.001Z,3.70
2018-08-11T18:25:37.707Z,5.60
2018-08-11T18:28:07.578Z,3.73
2018-08-11T18:30:36.465Z,4.30
2018-08-11T18:33:05.208Z,6.67
2018-08-11T18:35:34.988Z,6.90
2018-08-11T18:38:04.136Z,4.60
2018-08-11T18:40:32.877Z,6.10
2018-08-11T18:43:02.830Z,5.33
2018-08-11T18:45:31.839Z,4.43
2018-08-11T18:48:00.505Z,5.63
2018-08-11T18:50:29.304Z,5.40
2018-08-11T18:52:58.119Z,5.37
2018-08-11T18:55:26.892Z,7.07
2018-08-11T18:57:55.867Z,5.57
2018-08-11T19:03:08.465Z,7.30
2018-08-11T19:05:37.490Z,7.13
2018-08-11T19:08:06.414Z,9.47
2018-08-11T19:10:35.334Z,7.93
2018-08-11T19:13:04.128Z,7.33
2018-08-11T19:15:32.933Z,8.93
2018-08-11T19:18:01.869Z,12.90
2018-08-11T19:20:30.641Z,6.80
2018-08-11T19:22:59.644Z,10.80
2018-08-11T19:25:28.541Z,13.93
2018-08-11T19:27:57.332Z,11.07
2018-08-11T19:30:26.112Z,8.37
2018-08-11T19:32:55.981Z,9.23
2018-08-11T19:35:24.928Z,12.40
2018-08-11T19:37:53.692Z,13.30
2018-08-11T19:40:22.977Z,18.67
2018-08-11T19:42:52.529Z,10.13
2018-08-11T19:45:21.456Z,9.37
2018-08-11T19:47:50.681Z,15.20
2018-08-11T19:50:19.362Z,16.50
2018-08-11T19:52:49.151Z,9.87
2018-08-11T19:55:18.136Z,11.53
2018-08-11T19:57:46.919Z,10.53
2018-08-11T20:03:00.252Z,9.63
2018-08-11T20:05:29.241Z,9.10
2018-08-11T20:07:57.981Z,9.87
2018-08-11T20:10:28.048Z,7.17
2018-08-11T20:12:57.091Z,9.97
2018-08-11T20:15:27.816Z,15.20
2018-08-11T20:17:56.663Z,9.07
2018-08-11T20:20:25.538Z,11.13
2018-08-11T20:22:54.329Z,10.97
2018-08-11T20:25:23.196Z,8.30
2018-08-11T20:27:52.057Z,9.10
2018-08-11T20:30:20.809Z,8.60
2018-08-11T20:32:49.677Z,8.40
2018-08-11T20:35:18.612Z,11.83
2018-08-11T20:37:47.289Z,11.10
2018-08-11T20:40:16.021Z,13.90
2018-08-11T20:42:44.990Z,13.30
2018-08-11T20:45:13.882Z,11.83
2018-08-11T20:47:44.064Z,26.50
2018-08-11T20:50:13.044Z,21.33
2018-08-11T20:52:42.080Z,22.37
2018-08-11T20:55:10.845Z,21.27
2018-08-11T20:57:39.712Z,18.87
2018-08-11T21:00:11.412Z,17.27
2018-08-11T21:02:40.359Z,19.33
2018-08-11T21:05:11.617Z,18.73
2018-08-11T21:07:40.568Z,14.17
2018-08-11T21:10:12.090Z,16.73
2018-08-11T21:12:41.660Z,15.63
2018-08-11T21:15:11.052Z,11.07
2018-08-11T21:17:39.987Z,9.27
2018-08-11T21:20:11.147Z,11.10
2018-08-11T21:22:40.066Z,14.33
2018-08-11T21:25:10.727Z,14.37
2018-08-11T21:27:39.777Z,11.07
2018-08-11T21:30:11.998Z,12.83
2018-08-11T21:32:41.021Z,12.70
2018-08-11T21:35:09.927Z,16.77
2018-08-11T21:37:39.188Z,17.27
2018-08-11T21:40:10.721Z,12.47
2018-08-11T21:42:39.645Z,11.43
2018-08-11T21:45:08.813Z,10.50
2018-08-11T21:47:38.260Z,14.83
2018-08-11T21:50:07.685Z,16.03
2018-08-11T21:52:36.999Z,12.73
2018-08-11T21:55:06.804Z,12.87
2018-08-11T21:57:36.285Z,10.10
2018-08-11T22:00:19.454Z,12.93
2018-08-11T22:02:48.406Z,17.13
2018-08-11T22:05:17.112Z,9.83
2018-08-11T22:07:46.859Z,10.73
2018-08-11T22:10:15.701Z,10.60
2018-08-11T22:12:44.512Z,9.90
2018-08-11T22:15:16.522Z,8.43
2018-08-11T22:17:45.472Z,9.90
2018-08-11T22:20:14.305Z,10.03
2018-08-11T22:22:43.526Z,7.03
2018-08-11T22:25:12.776Z,7.90
2018-08-11T22:27:41.741Z,9.33
2018-08-11T22:30:10.802Z,6.47
2018-08-11T22:32:40.128Z,6.83
2018-08-11T22:35:11.490Z,4.63
2018-08-11T22:37:40.213Z,5.60
2018-08-11T22:40:09.337Z,6.37
2018-08-11T22:42:38.788Z,6.40
2018-08-11T22:45:10.938Z,6.10
2018-08-11T22:47:39.945Z,5.57
2018-08-11T22:50:11.545Z,7.10
2018-08-11T22:52:40.675Z,5.57
2018-08-11T22:55:09.637Z,6.20
2018-08-11T22:57:38.612Z,6.10
2018-08-11T23:00:12.131Z,7.03
2018-08-11T23:02:40.932Z,8.00
2018-08-11T23:05:09.844Z,7.37
2018-08-11T23:07:39.027Z,5.53
2018-08-11T23:10:09.690Z,5.13
2018-08-11T23:12:40.133Z,5.67
2018-08-11T23:15:11.387Z,6.93
2018-08-11T23:17:40.735Z,5.63
2018-08-11T23:20:10.657Z,9.30
2018-08-11T23:22:39.368Z,7.10
2018-08-11T23:25:09.181Z,7.03
2018-08-11T23:27:39.220Z,5.43
2018-08-11T23:30:10.450Z,7.63
2018-08-11T23:32:40.080Z,6.03
2018-08-11T23:35:08.841Z,10.27
2018-08-11T23:37:37.533Z,5.70
2018-08-11T23:40:07.881Z,6.80
2018-08-11T23:42:37.137Z,6.13
2018-08-11T23:45:09.408Z,5.07
2018-08-11T23:47:38.525Z,14.87
2018-08-11T23:50:08.060Z,6.90
2018-08-11T23:52:37.131Z,6.40
2018-08-11T23:55:07.002Z,7.23
2018-08-11T23:57:37.094Z,8.40
